createdAt,value
2022-12-19T00:01:27.542Z,-2.82
2022-12-19T00:04:02.368Z,-2.79
2022-12-19T00:06:37.993Z,-2.65
2022-12-19T00:09:14.466Z,-2.93
2022-12-19T00:11:43.410Z,-3.01
2022-12-19T00:14:13.081Z,-3.16
2022-12-19T00:16:41.610Z,-2.96
2022-12-19T00:19:13.478Z,-2.97
2022-12-19T00:21:42.136Z,-2.88
2022-12-19T00:24:21.171Z,-2.77
2022-12-19T00:26:51.155Z,-2.83
2022-12-19T00:29:19.818Z,-2.81
2022-12-19T00:31:48.670Z,-2.96
2022-12-19T00:34:18.673Z,-2.87
2022-12-19T00:36:47.302Z,-2.77
2022-12-19T00:39:15.798Z,-2.82
2022-12-19T00:41:44.407Z,-2.71
2022-12-19T00:44:17.976Z,-2.67
2022-12-19T00:46:52.446Z,-2.54
2022-12-19T00:49:23.162Z,-2.61
2022-12-19T00:51:51.737Z,-2.59
2022-12-19T00:54:20.343Z,-2.62
2022-12-19T00:56:49.529Z,-2.67
2022-12-19T00:59:18.161Z,-2.62
2022-12-19T01:01:58.499Z,-2.79
2022-12-19T01:04:29.784Z,-2.87
2022-12-19T01:07:03.001Z,-2.86
2022-12-19T01:09:37.428Z,-2.87
2022-12-19T01:12:25.692Z,-2.87
2022-12-19T01:15:04.662Z,-2.87
2022-12-19T01:17:39.133Z,-2.80
2022-12-19T01:20:29.457Z,-2.93
2022-12-19T01:23:00.177Z,-2.99
2022-12-19T01:25:29.443Z,-2.93
2022-12-19T01:27:58.626Z,-2.96
2022-12-19T01:30:29.068Z,-2.88
2022-12-19T01:33:00.968Z,-2.86
2022-12-19T01:35:30.937Z,-2.86
2022-12-19T01:38:07.935Z,-2.67
2022-12-19T01:40:37.804Z,-2.88
2022-12-19T01:43:07.205Z,-2.80
2022-12-19T01:45:42.121Z,-2.72
2022-12-19T01:48:20.314Z,-2.91
2022-12-19T01:51:01.222Z,-2.58
2022-12-19T01:53:48.387Z,-2.59
2022-12-19T01:56:23.762Z,-2.64
2022-12-19T01:59:06.014Z,-2.92
2022-12-19T02:01:51.510Z,-2.86
2022-12-19T02:04:31.907Z,-2.72
2022-12-19T02:07:15.081Z,-2.76
2022-12-19T02:09:47.436Z,-2.87
2022-12-19T02:12:28.201Z,-2.98
2022-12-19T02:15:03.173Z,-2.91
2022-12-19T02:17:48.265Z,-2.83
2022-12-19T02:21:15.908Z,-2.77
2022-12-19T02:24:42.963Z,-2.67
2022-12-19T02:27:59.204Z,-2.64
2022-12-19T02:30:53.075Z,-2.90
2022-12-19T02:33:34.133Z,-2.61
2022-12-19T02:36:13.348Z,-2.50
2022-12-19T02:38:51.653Z,-2.50
2022-12-19T02:41:28.229Z,-2.46
2022-12-19T02:44:02.747Z,-2.52
2022-12-19T02:46:34.558Z,-2.52
2022-12-19T02:49:03.872Z,-2.43
2022-12-19T02:51:32.567Z,-2.45
2022-12-19T02:54:01.402Z,-2.36
2022-12-19T02:56:46.783Z,-2.27
2022-12-19T02:59:47.228Z,-2.31
2022-12-19T03:02:37.264Z,-2.39
2022-12-19T03:05:16.014Z,-2.30
2022-12-19T03:07:56.994Z,-2.33
2022-12-19T03:10:35.746Z,-2.21
2022-12-19T03:13:13.887Z,-2.36
2022-12-19T03:15:43.970Z,-2.34
2022-12-19T03:18:14.870Z,-2.35
2022-12-19T03:20:50.841Z,-2.29
2022-12-19T03:23:20.557Z,-2.32
2022-12-19T03:25:56.164Z,-2.24
2022-12-19T03:28:31.331Z,-2.18
2022-12-19T03:31:01.883Z,-2.17
2022-12-19T03:33:35.039Z,-2.25
2022-12-19T03:36:10.382Z,-2.10
2022-12-19T03:38:46.577Z,-2.16
2022-12-19T03:41:40.149Z,-2.11
2022-12-19T03:44:11.520Z,-2.26
2022-12-19T03:46:46.077Z,-2.18
2022-12-19T03:49:16.668Z,-2.21
2022-12-19T03:51:59.394Z,-2.36
2022-12-19T03:54:33.405Z,-2.35
2022-12-19T03:57:10.431Z,-2.34
2022-12-19T03:59:46.257Z,-2.26
2022-12-19T04:02:21.216Z,-2.47
2022-12-19T04:04:57.381Z,-2.51
2022-12-19T04:07:26.593Z,-2.44
2022-12-19T04:09:59.186Z,-2.30
2022-12-19T04:12:37.722Z,-2.35
2022-12-19T04:15:08.755Z,-2.30
2022-12-19T04:17:47.764Z,-2.21
2022-12-19T04:20:19.837Z,-2.08
2022-12-19T04:22:57.803Z,-2.29
2022-12-19T04:25:32.216Z,-2.34
2022-12-19T04:28:14.259Z,-2.23
2022-12-19T04:30:45.123Z,-2.20
2022-12-19T04:33:13.813Z,-2.11
2022-12-19T04:35:43.951Z,-2.04
2022-12-19T04:38:15.055Z,-1.99
2022-12-19T04:40:43.623Z,-2.03
2022-12-19T04:43:12.251Z,-1.89
2022-12-19T04:45:43.106Z,-1.89
2022-12-19T04:48:11.925Z,-1.92
2022-12-19T04:50:40.548Z,-2.12
2022-12-19T04:53:10.700Z,-2.01
2022-12-19T04:55:41.300Z,-2.00
2022-12-19T04:58:09.957Z,-1.95
2022-12-19T05:00:38.551Z,-2.06
2022-12-19T05:03:07.277Z,-1.91
2022-12-19T05:05:35.878Z,-2.12
2022-12-19T05:08:04.489Z,-2.16
2022-12-19T05:10:34.567Z,-2.28
2022-12-19T05:13:03.140Z,-2.05
2022-12-19T05:15:31.701Z,-2.01
2022-12-19T05:18:00.320Z,-2.21
2022-12-19T05:20:28.934Z,-2.05
2022-12-19T05:22:57.528Z,-2.10
2022-12-19T05:25:26.167Z,-1.99
2022-12-19T05:27:56.136Z,-2.04
2022-12-19T05:30:24.908Z,-2.15
2022-12-19T05:32:53.596Z,-2.13
2022-12-19T05:35:22.261Z,-2.11
2022-12-19T05:37:50.967Z,-2.27
2022-12-19T05:40:19.810Z,-2.39
2022-12-19T05:42:48.421Z,-2.24
2022-12-19T05:45:18.945Z,-2.59
2022-12-19T05:47:47.870Z,-2.68
2022-12-19T05:50:18.226Z,-2.36
2022-12-19T05:52:53.135Z,-2.37
2022-12-19T05:55:21.750Z,-2.23
2022-12-19T05:57:50.371Z,-2.24
2022-12-19T06:00:21.328Z,-2.11
2022-12-19T06:02:50.197Z,-2.06
2022-12-19T06:05:18.937Z,-2.01
2022-12-19T06:07:48.685Z,-2.00
2022-12-19T06:10:17.375Z,-1.87
2022-12-19T06:12:45.932Z,-1.82
2022-12-19T06:15:14.588Z,-1.89
2022-12-19T06:17:44.525Z,-1.79
2022-12-19T06:20:13.399Z,-1.67
2022-12-19T06:22:42.124Z,-1.72
2022-12-19T06:25:13.674Z,-1.64
2022-12-19T06:27:42.333Z,-1.65
2022-12-19T06:30:12.407Z,-1.57
2022-12-19T06:32:41.163Z,-1.57
2022-12-19T06:35:11.569Z,-1.68
2022-12-19T06:37:40.173Z,-1.58
2022-12-19T06:40:31.905Z,-1.68
2022-12-19T06:42:59.400Z,-1.76
2022-12-19T06:45:27.979Z,-1.82
2022-12-19T06:47:59.011Z,-1.84
2022-12-19T06:50:29.776Z,-1.75
2022-12-19T06:52:59.283Z,-1.79
2022-12-19T06:55:28.434Z,-1.78
2022-12-19T06:57:57.340Z,-1.66
2022-12-19T07:00:26.232Z,-1.62
2022-12-19T07:02:56.810Z,-1.66
2022-12-19T07:05:25.775Z,-1.63
2022-12-19T07:07:55.618Z,-1.72
2022-12-19T07:10:24.584Z,-1.67
2022-12-19T07:12:53.190Z,-1.75
2022-12-19T07:15:21.748Z,-1.64
2022-12-19T07:17:50.518Z,-1.83
2022-12-19T07:20:20.737Z,-1.70
2022-12-19T07:22:50.582Z,-1.69
2022-12-19T07:25:20.973Z,-1.61
2022-12-19T07:27:49.934Z,-1.67
2022-12-19T07:30:19.061Z,-1.58
2022-12-19T07:32:47.649Z,-1.51
2022-12-19T07:35:16.571Z,-1.40
2022-12-19T07:37:45.389Z,-1.32
2022-12-19T07:40:15.526Z,-1.30
2022-12-19T07:42:45.871Z,-1.24
2022-12-19T07:45:14.557Z,-1.31
2022-12-19T07:47:43.212Z,-1.21
2022-12-19T07:50:12.531Z,-1.26
2022-12-19T07:52:43.725Z,-1.20
2022-12-19T07:55:12.672Z,-1.06
2022-12-19T07:57:41.333Z,-1.07
2022-12-19T08:00:13.483Z,-0.99
2022-12-19T08:02:42.490Z,-0.81
2022-12-19T08:05:12.109Z,-0.92
2022-12-19T08:07:40.805Z,-0.78
2022-12-19T08:10:12.473Z,-0.76
2022-12-19T08:12:41.476Z,-0.75
2022-12-19T08:15:12.347Z,-0.71
2022-12-19T08:17:41.010Z,-0.72
2022-12-19T08:20:12.431Z,-0.66
2022-12-19T08:22:41.242Z,-0.81
2022-12-19T08:25:10.985Z,-0.66
2022-12-19T08:27:39.997Z,-0.55
2022-12-19T08:30:13.990Z,-0.50
2022-12-19T08:32:42.921Z,-0.27
2022-12-19T08:35:11.939Z,-0.11
2022-12-19T08:37:40.514Z,-0.15
2022-12-19T08:40:10.941Z,0.03
2022-12-19T08:42:39.656Z,0.20
2022-12-19T08:45:09.889Z,-0.11
2022-12-19T08:47:39.792Z,-0.05
2022-12-19T08:50:09.607Z,-0.05
2022-12-19T08:52:38.587Z,0.25
2022-12-19T08:55:10.102Z,0.20
2022-12-19T08:57:38.957Z,0.32
2022-12-19T09:00:09.577Z,0.36
2022-12-19T09:02:40.439Z,0.42
2022-12-19T09:06:00.974Z,0.24
2022-12-19T09:07:58.828Z,0.22
2022-12-19T09:10:27.428Z,0.04
2022-12-19T09:12:58.024Z,0.51
2022-12-19T09:15:26.848Z,0.36
2022-12-19T09:17:57.114Z,0.35
2022-12-19T09:20:25.859Z,0.61
2022-12-19T09:22:55.093Z,0.58
2022-12-19T09:25:23.881Z,0.43
2022-12-19T09:28:26.368Z,0.79
2022-12-19T09:30:41.535Z,0.61
2022-12-19T09:33:12.081Z,0.82
2022-12-19T09:35:40.663Z,0.95
2022-12-19T09:38:09.351Z,0.85
2022-12-19T09:41:04.127Z,0.42
2022-12-19T09:43:51.923Z,0.62
2022-12-19T09:46:26.168Z,0.56
2022-12-19T09:48:58.544Z,0.52
2022-12-19T09:51:36.645Z,0.62
2022-12-19T09:54:15.674Z,0.49
2022-12-19T09:56:46.911Z,0.91
2022-12-19T09:59:39.833Z,1.05
2022-12-19T10:02:33.308Z,1.15
2022-12-19T10:05:37.492Z,1.12
2022-12-19T10:08:18.668Z,1.06
2022-12-19T10:12:47.458Z,1.36
2022-12-19T10:14:22.323Z,1.59
2022-12-19T10:17:24.261Z,1.52
2022-12-19T10:20:17.177Z,1.62
2022-12-19T10:23:02.491Z,1.86
2022-12-19T10:25:48.513Z,1.59
2022-12-19T10:28:37.597Z,1.79
2022-12-19T10:31:22.391Z,1.59
2022-12-19T10:34:03.627Z,1.46
2022-12-19T10:37:12.867Z,1.75
2022-12-19T10:39:38.501Z,1.99
2022-12-19T10:42:18.400Z,2.27
2022-12-19T10:44:50.218Z,2.28
2022-12-19T10:47:19.364Z,2.12
2022-12-19T10:49:49.303Z,2.25
2022-12-19T10:52:49.067Z,2.13
2022-12-19T10:55:39.282Z,2.51
2022-12-19T10:58:23.689Z,2.52
2022-12-19T11:01:11.564Z,2.85
2022-12-19T11:03:42.976Z,2.75
2022-12-19T11:06:51.092Z,2.36
2022-12-19T11:09:27.651Z,2.49
2022-12-19T11:16:35.983Z,2.46
2022-12-19T11:19:36.355Z,2.53
2022-12-19T11:24:46.221Z,2.77
2022-12-19T11:29:34.344Z,2.88
2022-12-19T11:29:35.024Z,2.53
2022-12-19T11:30:44.126Z,2.66
2022-12-19T11:32:43.513Z,2.60
2022-12-19T11:35:24.210Z,2.83
2022-12-19T11:37:58.308Z,2.62
2022-12-19T11:40:40.431Z,2.31
2022-12-19T11:46:35.830Z,2.32
2022-12-19T11:49:17.084Z,2.45
2022-12-19T11:51:56.084Z,2.56
2022-12-19T11:54:33.207Z,2.59
2022-12-19T11:57:02.837Z,2.49
2022-12-19T11:59:36.523Z,2.44
2022-12-19T12:02:52.273Z,2.83
2022-12-19T12:05:47.019Z,2.82
2022-12-19T12:11:15.576Z,2.83
2022-12-19T12:19:19.223Z,2.77
2022-12-19T12:28:52.462Z,2.37
2022-12-19T12:31:07.544Z,2.86
2022-12-19T12:31:17.155Z,2.64
2022-12-19T12:31:41.880Z,2.59
2022-12-19T12:31:53.298Z,2.39
2022-12-19T12:35:08.268Z,2.54
2022-12-19T12:35:40.777Z,2.42
2022-12-19T12:40:05.962Z,2.28
2022-12-19T12:42:51.630Z,2.09
2022-12-19T12:45:25.163Z,2.24
2022-12-19T12:47:55.630Z,2.16
2022-12-19T12:50:27.547Z,1.83
2022-12-19T12:53:02.726Z,2.09
2022-12-19T12:55:35.574Z,2.27
2022-12-19T12:58:06.130Z,2.49
2022-12-19T13:00:38.188Z,2.50
2022-12-19T13:03:16.896Z,2.63
2022-12-19T13:06:04.452Z,2.53
2022-12-19T13:08:38.763Z,2.65
2022-12-19T13:11:34.046Z,2.65
2022-12-19T13:14:02.615Z,2.48
2022-12-19T13:16:53.458Z,2.42
2022-12-19T13:19:28.771Z,2.39
2022-12-19T13:22:19.528Z,2.20
2022-12-19T13:24:51.621Z,2.29
2022-12-19T13:27:49.311Z,2.33
2022-12-19T13:30:20.521Z,2.43
2022-12-19T13:33:13.048Z,2.45
2022-12-19T13:36:43.122Z,2.54
2022-12-19T13:39:50.026Z,2.40
2022-12-19T13:41:47.892Z,2.47
2022-12-19T13:44:22.423Z,2.24
2022-12-19T13:46:51.598Z,2.25
2022-12-19T13:49:35.471Z,2.29
2022-12-19T13:52:06.415Z,2.25
2022-12-19T13:54:47.634Z,2.38
2022-12-19T13:57:24.839Z,2.32
2022-12-19T14:00:00.412Z,2.13
2022-12-19T14:02:43.774Z,2.23
2022-12-19T14:06:14.705Z,2.34
2022-12-19T14:08:22.715Z,2.32
2022-12-19T14:11:40.707Z,2.36
2022-12-19T14:14:16.460Z,2.23
2022-12-19T14:16:49.521Z,2.17
2022-12-19T14:19:22.766Z,2.09
2022-12-19T14:22:03.798Z,2.00
2022-12-19T14:24:42.730Z,1.94
2022-12-19T14:28:19.923Z,1.96
2022-12-19T14:30:30.485Z,1.85
2022-12-19T14:33:46.641Z,1.87
2022-12-19T14:36:10.526Z,1.83
2022-12-19T14:39:26.451Z,1.70
2022-12-19T14:42:02.670Z,1.51
2022-12-19T14:54:01.799Z,1.60
2022-12-19T14:54:05.399Z,1.43
2022-12-19T14:54:21.239Z,1.71
2022-12-19T14:54:28.915Z,1.61
2022-12-19T14:59:18.514Z,1.64
2022-12-19T15:01:54.539Z,1.66
2022-12-19T15:04:51.448Z,1.69
2022-12-19T15:07:22.993Z,1.59
2022-12-19T15:11:03.852Z,1.55
2022-12-19T15:14:51.840Z,1.52
2022-12-19T15:16:08.008Z,1.48
2022-12-19T15:18:42.688Z,1.32
2022-12-19T15:21:14.840Z,1.46
2022-12-19T15:23:45.783Z,1.38
2022-12-19T15:26:19.957Z,1.36
2022-12-19T15:28:51.715Z,1.24
2022-12-19T15:31:33.001Z,1.27
2022-12-19T15:36:53.604Z,1.31
2022-12-19T15:39:23.682Z,1.37
2022-12-19T15:41:56.029Z,1.35
2022-12-19T15:44:32.576Z,1.28
2022-12-19T15:47:05.806Z,1.34
2022-12-19T15:49:35.343Z,1.36
2022-12-19T15:52:04.270Z,1.39
2022-12-19T15:54:50.214Z,1.37
2022-12-19T15:57:30.261Z,1.30
2022-12-19T16:00:03.128Z,1.31
2022-12-19T16:03:13.373Z,1.16
2022-12-19T16:05:26.088Z,1.15
2022-12-19T16:07:54.891Z,1.04
2022-12-19T16:10:24.405Z,1.00
2022-12-19T16:12:58.164Z,1.07
2022-12-19T16:15:30.497Z,0.92
2022-12-19T16:18:04.053Z,0.97
2022-12-19T16:20:36.176Z,0.94
2022-12-19T16:23:05.245Z,1.00
2022-12-19T16:25:39.904Z,1.15
2022-12-19T16:28:25.469Z,1.27
2022-12-19T16:30:59.290Z,1.31
2022-12-19T16:33:32.039Z,1.30
2022-12-19T16:36:05.768Z,1.37
2022-12-19T16:38:35.287Z,1.31
2022-12-19T16:41:04.261Z,1.27
2022-12-19T16:43:38.509Z,1.23
2022-12-19T16:46:09.072Z,1.20
2022-12-19T16:48:39.274Z,1.21
2022-12-19T16:51:20.526Z,1.18
2022-12-19T16:53:50.674Z,1.17
2022-12-19T16:56:29.305Z,1.22
2022-12-19T16:59:01.221Z,1.16
2022-12-19T17:01:30.541Z,1.16
2022-12-19T17:04:00.741Z,1.12
2022-12-19T17:06:29.392Z,1.13
2022-12-19T17:08:58.084Z,1.06
2022-12-19T17:11:28.683Z,1.02
2022-12-19T17:14:04.399Z,1.07
2022-12-19T17:16:33.273Z,1.04
2022-12-19T17:19:03.841Z,1.04
2022-12-19T17:21:32.440Z,1.04
2022-12-19T17:24:01.039Z,0.99
2022-12-19T17:26:29.881Z,0.96
2022-12-19T17:28:58.719Z,0.76
2022-12-19T17:31:38.086Z,0.85
2022-12-19T17:34:17.291Z,0.87
2022-12-19T17:36:46.831Z,0.82
2022-12-19T17:39:21.653Z,0.79
2022-12-19T17:41:52.010Z,0.78
2022-12-19T17:44:20.895Z,0.77
2022-12-19T17:46:50.451Z,0.76
2022-12-19T17:49:29.305Z,0.68
2022-12-19T17:52:01.325Z,0.68
2022-12-19T17:54:30.720Z,0.72
2022-12-19T17:56:59.845Z,0.73
2022-12-19T17:59:28.710Z,0.73
2022-12-19T18:01:57.777Z,0.60
2022-12-19T18:04:29.929Z,0.55
2022-12-19T18:06:58.649Z,0.51
2022-12-19T18:09:28.437Z,0.61
2022-12-19T18:11:57.101Z,0.65
2022-12-19T18:14:25.914Z,0.72
2022-12-19T18:16:54.779Z,0.65
2022-12-19T18:19:30.563Z,0.66
2022-12-19T18:21:59.349Z,0.72
2022-12-19T18:24:28.187Z,0.74
2022-12-19T18:26:56.990Z,0.71
2022-12-19T18:29:26.099Z,0.62
2022-12-19T18:31:56.626Z,0.58
2022-12-19T18:34:31.532Z,0.62
2022-12-19T18:37:00.824Z,0.52
2022-12-19T18:39:31.972Z,0.46
2022-12-19T18:42:00.979Z,0.60
2022-12-19T18:44:29.679Z,0.62
2022-12-19T18:46:58.930Z,0.55
2022-12-19T18:49:30.069Z,0.53
2022-12-19T18:52:01.063Z,0.59
2022-12-19T18:54:30.350Z,0.64
2022-12-19T18:57:00.124Z,0.70
2022-12-19T18:59:29.040Z,0.66
2022-12-19T19:01:58.056Z,0.73
2022-12-19T19:04:27.076Z,0.65
2022-12-19T19:06:57.266Z,0.61
2022-12-19T19:09:26.224Z,0.62
2022-12-19T19:11:57.972Z,0.55
2022-12-19T19:14:26.970Z,0.52
2022-12-19T19:16:55.824Z,0.46
2022-12-19T19:19:25.027Z,0.48
2022-12-19T19:21:53.800Z,0.43
2022-12-19T19:24:24.639Z,0.49
2022-12-19T19:26:53.535Z,0.49
2022-12-19T19:29:22.250Z,0.49
2022-12-19T19:31:53.431Z,0.46
2022-12-19T19:34:27.191Z,0.42
2022-12-19T19:37:00.606Z,0.43
2022-12-19T19:39:35.118Z,0.43
2022-12-19T19:42:04.084Z,0.43
2022-12-19T19:44:32.954Z,0.41
2022-12-19T19:47:02.043Z,0.43
2022-12-19T19:49:30.911Z,0.42
2022-12-19T19:52:02.880Z,0.34
2022-12-19T19:54:35.414Z,0.34
2022-12-19T19:57:04.258Z,0.33
2022-12-19T19:59:33.163Z,0.33
2022-12-19T20:02:02.429Z,0.31
2022-12-19T20:04:31.446Z,0.28
2022-12-19T20:07:00.359Z,0.26
2022-12-19T20:09:29.519Z,0.30
2022-12-19T20:11:59.777Z,0.26
2022-12-19T20:14:28.770Z,0.20
2022-12-19T20:16:57.618Z,0.18
2022-12-19T20:19:26.681Z,0.12
2022-12-19T20:21:55.578Z,0.14
2022-12-19T20:24:24.846Z,0.08
2022-12-19T20:26:54.733Z,0.07
2022-12-19T20:29:25.288Z,0.06
2022-12-19T20:31:54.077Z,0.08
2022-12-19T20:34:22.954Z,0.14
2022-12-19T20:36:51.701Z,0.12
2022-12-19T20:39:22.247Z,0.15
2022-12-19T20:41:51.832Z,0.23
2022-12-19T20:44:24.664Z,0.19
2022-12-19T20:46:55.399Z,0.15
2022-12-19T20:49:25.450Z,0.22
2022-12-19T20:51:54.301Z,0.33
2022-12-19T20:54:23.651Z,0.35
2022-12-19T20:56:52.369Z,0.42
2022-12-19T20:59:21.374Z,0.42
2022-12-19T21:01:50.339Z,0.41
2022-12-19T21:04:20.662Z,0.46
2022-12-19T21:06:52.395Z,0.52
2022-12-19T21:09:21.140Z,0.56
2022-12-19T21:11:50.022Z,0.53
2022-12-19T21:14:18.721Z,0.50
2022-12-19T21:16:47.793Z,0.53
2022-12-19T21:19:16.912Z,0.46
2022-12-19T21:21:47.320Z,0.50
2022-12-19T21:24:16.092Z,0.53
2022-12-19T21:26:45.182Z,0.52
2022-12-19T21:29:13.886Z,0.56
2022-12-19T21:31:42.771Z,0.47
2022-12-19T21:34:12.423Z,0.47
2022-12-19T21:36:41.492Z,0.52
2022-12-19T21:39:12.841Z,0.42
2022-12-19T21:41:41.556Z,0.41
2022-12-19T21:44:11.755Z,0.41
2022-12-19T21:46:40.439Z,0.44
2022-12-19T21:49:10.488Z,0.45
2022-12-19T21:51:39.141Z,0.43
2022-12-19T21:54:10.830Z,0.46
2022-12-19T21:56:41.677Z,0.42
2022-12-19T21:59:14.952Z,0.41
2022-12-19T22:01:44.887Z,0.45
2022-12-19T22:04:20.891Z,0.42
2022-12-19T22:06:51.791Z,0.42
2022-12-19T22:09:23.463Z,0.48
2022-12-19T22:11:53.699Z,0.42
2022-12-19T22:14:22.675Z,0.38
2022-12-19T22:16:51.732Z,0.35
2022-12-19T22:19:21.143Z,0.24
2022-12-19T22:21:49.923Z,0.28
2022-12-19T22:24:20.060Z,0.27
2022-12-19T22:26:48.720Z,0.33
2022-12-19T22:29:19.312Z,0.29
2022-12-19T22:31:49.574Z,0.37
2022-12-19T22:34:22.598Z,0.41
2022-12-19T22:36:51.198Z,0.41
2022-12-19T22:39:22.500Z,0.35
2022-12-19T22:41:51.570Z,0.32
2022-12-19T22:44:24.821Z,0.27
2022-12-19T22:46:53.955Z,0.30
2022-12-19T22:49:22.697Z,0.29
2022-12-19T22:51:51.586Z,0.32
2022-12-19T22:54:20.278Z,0.30
2022-12-19T22:56:52.004Z,0.37
2022-12-19T22:59:22.117Z,0.40
2022-12-19T23:01:50.880Z,0.47
2022-12-19T23:04:19.750Z,0.42
2022-12-19T23:06:48.469Z,0.48
2022-12-19T23:09:19.412Z,0.53
2022-12-19T23:11:50.784Z,0.59
2022-12-19T23:14:22.632Z,0.61
2022-12-19T23:16:51.300Z,0.61
2022-12-19T23:19:20.227Z,0.51
2022-12-19T23:21:49.213Z,0.63
2022-12-19T23:24:17.874Z,0.63
2022-12-19T23:26:46.807Z,0.59
2022-12-19T23:29:16.728Z,0.61
2022-12-19T23:31:47.988Z,0.53
2022-12-19T23:34:18.211Z,0.62
2022-12-19T23:39:36.607Z,0.60
2022-12-19T23:42:05.629Z,0.60
2022-12-19T23:44:34.506Z,0.52
2022-12-19T23:47:04.537Z,0.58
2022-12-19T23:49:34.613Z,0.60
2022-12-19T23:52:03.480Z,0.57
2022-12-19T23:54:32.517Z,0.50
2022-12-19T23:57:01.168Z,0.42
2022-12-19T23:59:29.694Z,0.43
